Weather History for Beach, ND

Change the Weather History Date:

Tuesday, October 18, 2011

  Actual Average (KGDV) Record (KGDV)
Temperature  
Mean Temperature 42 °F -  
Max Temperature 55 °F 54 °F 82 °F (2003)
Min Temperature 28 °F 31 °F 17 °F (2006)
Degree Days  
Heating Degree Days 24    
Moisture  
Dew Point 26 °F    
Average Humidity 56    
Maximum Humidity 80    
Minimum Humidity 33    
Precipitation  
Precipitation 0.00 in - - ()
Sea Level Pressure  
Sea Level Pressure 30.25 in    
Wind  
Wind Speed 8 mph (WNW)    
Max Wind Speed 20 mph    
Max Gust Speed 26 mph    
Visibility 10 miles    
Events      
Averages and records for this station are not official NWS values.
T = Trace of Precipitation, MM = Missing Value Source: NWS Daily Summary

Daily Weather History Graph

Daily Weather History Graph

Search for Another Location

Airport:

Trip Planner

Search our weather history database for the weather conditions in past years. The results will help you decide how hot, cold, wet, or windy it might be!

Date:

Astronomy

Oct. 18, 2011 Rise Set
Actual Time 7:17 AM MDT 6:03 PM MDT
Civil Twilight 6:47 AM MDT 6:34 PM MDT
Nautical Twilight 6:11 AM MDT 7:09 PM MDT
Astronomical Twilight 5:36 AM MDT 7:44 PM MDT
Moon 10:34 PM MDT (10/18) 1:24 PM MDT (10/18)
Length of Visible Light 11h 47m
Length of Day
10h 45m
Waning Gibbous, 64% of the Moon is Illuminated
Oct 18
Waning Gibbous
Oct 19
Last Quarter
Oct 26
New
Nov 2
First Quarter
Nov 10
Full

Hourly Weather History & Observations

Time (MDT) Temp. Windchill Dew Point Humidity Pressure Visibility Wind Dir Wind Speed Gust Speed Precip Events Conditions
12:15 AM 35.6 °F 29.9 °F 24.8 °F 65% 30.21 in 10.0 mi West 6.9 mph - N/A   Scattered Clouds
12:35 AM 32.0 °F - 24.8 °F 75% 30.21 in 10.0 mi Calm Calm - N/A   Mostly Cloudy
12:55 AM 32.0 °F - 24.8 °F 75% 30.21 in 10.0 mi Calm Calm - N/A   Scattered Clouds
1:15 AM 32.0 °F - 24.8 °F 75% 30.22 in 10.0 mi Calm Calm - N/A   Clear
1:55 AM 28.4 °F 24.6 °F 23.0 °F 80% 30.21 in 10.0 mi SSW 3.5 mph - N/A   Partly Cloudy
2:35 AM 30.2 °F 25.4 °F 23.0 °F 75% 30.21 in 10.0 mi WSW 4.6 mph - N/A   Clear
2:55 AM 32.0 °F 28.7 °F 23.0 °F 69% 30.22 in 10.0 mi WSW 3.5 mph - N/A   Clear
3:15 AM 32.0 °F 25.6 °F 23.0 °F 69% 30.22 in 10.0 mi WSW 6.9 mph - N/A   Clear
3:35 AM 32.0 °F 27.5 °F 23.0 °F 69% 30.22 in 10.0 mi SW 4.6 mph - N/A   Clear
3:55 AM 32.0 °F 27.5 °F 23.0 °F 69% 30.23 in 10.0 mi WSW 4.6 mph - N/A   Clear
4:15 AM 32.0 °F 24.2 °F 24.8 °F 75% 30.23 in 10.0 mi WSW 9.2 mph - N/A   Clear
4:35 AM 32.0 °F 24.2 °F 24.8 °F 75% 30.23 in 10.0 mi WSW 9.2 mph - N/A   Partly Cloudy
5:15 AM 32.0 °F 24.2 °F 24.8 °F 75% 30.23 in 10.0 mi WSW 9.2 mph - N/A   Clear
5:35 AM 32.0 °F 24.8 °F 24.8 °F 75% 30.23 in 10.0 mi WSW 8.1 mph - N/A   Clear
5:55 AM 32.0 °F 24.2 °F 24.8 °F 75% 30.24 in 10.0 mi WSW 9.2 mph - N/A   Clear
6:15 AM 32.0 °F 24.2 °F 26.6 °F 80% 30.24 in 10.0 mi WSW 9.2 mph - N/A   Clear
6:35 AM 32.0 °F 24.2 °F 26.6 °F 80% 30.24 in 10.0 mi WSW 9.2 mph - N/A   Clear
6:55 AM 32.0 °F 23.6 °F 26.6 °F 80% 30.25 in 10.0 mi West 10.4 mph - N/A   Clear
7:15 AM 32.0 °F 23.6 °F 26.6 °F 80% 30.24 in 10.0 mi West 10.4 mph - N/A   Clear
7:35 AM 32.0 °F 23.0 °F 26.6 °F 80% 30.25 in 10.0 mi West 11.5 mph - N/A   Partly Cloudy
8:15 AM 35.6 °F 28.0 °F 26.6 °F 70% 30.27 in 10.0 mi WNW 10.4 mph - N/A   Scattered Clouds
8:35 AM 37.4 °F 30.8 °F 28.4 °F 70% 30.27 in 10.0 mi WNW 9.2 mph - N/A   Partly Cloudy
8:55 AM 39.2 °F 32.5 °F 28.4 °F 65% 30.28 in 10.0 mi WNW 10.4 mph - N/A   Partly Cloudy
9:15 AM 41.0 °F 33.9 °F 26.6 °F 57% 30.28 in 10.0 mi NW 12.7 mph - N/A   Clear
9:35 AM 41.0 °F 34.3 °F 26.6 °F 57% 30.29 in 10.0 mi NW 11.5 mph - N/A   Clear
9:55 AM 44.6 °F 37.4 °F 26.6 °F 49% 30.29 in 10.0 mi NW 16.1 mph - N/A   Clear
10:15 AM 44.6 °F 36.9 °F 24.8 °F 46% 30.30 in 10.0 mi NW 18.4 mph - N/A   Clear
10:55 AM 46.4 °F 39.0 °F 26.6 °F 46% 30.30 in 10.0 mi NW 19.6 mph 23.0 mph N/A   Clear
11:15 AM 48.2 °F - 24.8 °F 40% 30.30 in 10.0 mi NW 17.3 mph 23.0 mph N/A   Clear
11:35 AM 48.2 °F - 24.8 °F 40% 30.30 in 10.0 mi NW 18.4 mph - N/A   Clear
11:55 AM 50.0 °F - 24.8 °F 37% 30.30 in 10.0 mi NW 19.6 mph - N/A   Clear
12:15 PM 50.0 °F - 26.6 °F 40% 30.30 in 10.0 mi NW 16.1 mph - N/A   Clear
12:35 PM 51.8 °F - 26.6 °F 38% 30.29 in 10.0 mi NNW 16.1 mph - N/A   Scattered Clouds
12:55 PM 51.8 °F - 24.8 °F 35% 30.28 in 10.0 mi NW 13.8 mph 20.7 mph N/A   Partly Cloudy
1:15 PM 53.6 °F - 24.8 °F 33% 30.28 in 10.0 mi NW 19.6 mph 24.2 mph N/A   Partly Cloudy
1:35 PM 53.6 °F - 26.6 °F 35% 30.28 in 10.0 mi WNW 16.1 mph 24.2 mph N/A   Partly Cloudy
1:55 PM 53.6 °F - 26.6 °F 35% 30.28 in 10.0 mi NW 15.0 mph 26.5 mph N/A   Partly Cloudy
2:15 PM 53.6 °F - 26.6 °F 35% 30.27 in 10.0 mi NNW 17.3 mph 21.9 mph N/A   Mostly Cloudy
2:35 PM 53.6 °F - 26.6 °F 35% 30.27 in 10.0 mi NW 16.1 mph 24.2 mph N/A   Scattered Clouds
2:55 PM 53.6 °F - 26.6 °F 35% 30.26 in 10.0 mi NNW 17.3 mph 21.9 mph N/A   Clear
3:15 PM 55.4 °F - 26.6 °F 33% 30.26 in 10.0 mi NW 17.3 mph 24.2 mph N/A   Clear
3:35 PM 53.6 °F - 26.6 °F 35% 30.25 in 10.0 mi NNW 16.1 mph 19.6 mph N/A   Clear
3:55 PM 55.4 °F - 26.6 °F 33% 30.25 in 10.0 mi NW 13.8 mph 24.2 mph N/A   Partly Cloudy
4:15 PM 53.6 °F - 24.8 °F 33% 30.25 in 10.0 mi NW 12.7 mph - N/A   Partly Cloudy
4:35 PM 53.6 °F - 26.6 °F 35% 30.24 in 10.0 mi NW 9.2 mph - N/A   Clear
4:55 PM 53.6 °F - 26.6 °F 35% 30.24 in 10.0 mi NW 15.0 mph - N/A   Scattered Clouds
5:15 PM 53.6 °F - 26.6 °F 35% 30.24 in 10.0 mi NW 11.5 mph - N/A   Scattered Clouds
5:35 PM 51.8 °F - 26.6 °F 38% 30.24 in 10.0 mi NW 10.4 mph - N/A   Partly Cloudy
5:55 PM 48.2 °F - 26.6 °F 43% 30.24 in 10.0 mi NW 6.9 mph - N/A   Clear
6:15 PM 44.6 °F 40.7 °F 26.6 °F 49% 30.24 in 9.0 mi NW 6.9 mph - N/A   Clear
6:35 PM 44.6 °F 41.4 °F 26.6 °F 49% 30.24 in 10.0 mi WNW 5.8 mph - N/A   Scattered Clouds
6:55 PM 44.6 °F 42.2 °F 26.6 °F 49% 30.24 in 10.0 mi NW 4.6 mph - N/A   Mostly Cloudy
7:15 PM 41.0 °F 37.1 °F 26.6 °F 57% 30.23 in 10.0 mi NW 5.8 mph - N/A   Partly Cloudy
7:35 PM 39.2 °F - 24.8 °F 56% 30.23 in 10.0 mi Calm Calm - N/A   Clear
7:55 PM 33.8 °F 29.6 °F 24.8 °F 70% 30.23 in 10.0 mi SE 4.6 mph - N/A   Clear
8:15 PM 32.0 °F 27.5 °F 26.6 °F 80% 30.23 in 10.0 mi SE 4.6 mph - N/A   Partly Cloudy
8:35 PM 33.8 °F 30.8 °F 26.6 °F 75% 30.23 in 10.0 mi SSE 3.5 mph - N/A   Partly Cloudy
8:55 PM 32.0 °F 28.7 °F 26.6 °F 80% 30.23 in 10.0 mi SSE 3.5 mph - N/A   Partly Cloudy
9:15 PM 30.2 °F 26.7 °F 24.8 °F 80% 30.23 in 10.0 mi South 3.5 mph - N/A   Partly Cloudy
9:35 PM 32.0 °F 27.5 °F 24.8 °F 75% 30.22 in 10.0 mi SSW 4.6 mph - N/A   Scattered Clouds
9:55 PM 32.0 °F 27.5 °F 24.8 °F 75% 30.22 in 10.0 mi South 4.6 mph - N/A   Scattered Clouds
10:15 PM 30.2 °F 26.7 °F 24.8 °F 80% 30.22 in 10.0 mi South 3.5 mph - N/A   Partly Cloudy
10:35 PM 32.0 °F 27.5 °F 24.8 °F 75% 30.22 in 10.0 mi SSE 4.6 mph - N/A   Partly Cloudy
10:55 PM 33.8 °F 29.6 °F 24.8 °F 70% 30.22 in 10.0 mi South 4.6 mph - N/A   Partly Cloudy
11:35 PM 32.0 °F - 24.8 °F 75% 30.21 in 10.0 mi Calm Calm - N/A   Clear
11:55 PM 33.8 °F 30.8 °F 26.6 °F 75% 30.21 in 10.0 mi SE 3.5 mph - N/A   Clear